Time;durP1;ratioP1;P1;durP2;ratioP2;P2;SDS_P1;SDS_P2;PMS_P1;PMS_P2;Temp;Humidity;BMP_temperature;BMP_pressure;BME280_temperature;BME280_humidity;BME280_pressure;Samples;Min_cycle;Max_cycle;Signal;HPM_P1;HPM_P2
2023/09/20 00:01:50;;;;;;;4.38;2.08;;;21.30;94.20;;;;;;6307463;22;20023;-76
2023/09/20 00:04:16;;;;;;;7.88;2.33;;;21.30;94.30;;;;;;6307465;22;20333;-76
2023/09/20 00:06:42;;;;;;;9.23;2.13;;;21.30;94.40;;;;;;6307143;22;20005;-77
2023/09/20 00:09:08;;;;;;;5.07;2.42;;;21.30;94.40;;;;;;6306954;22;20007;-77
2023/09/20 00:11:35;;;;;;;6.28;1.80;;;21.20;94.20;;;;;;6307374;22;20421;-76
2023/09/20 00:14:01;;;;;;;8.90;2.00;;;21.20;94.10;;;;;;6279673;22;20337;-76
2023/09/20 00:16:28;;;;;;;8.48;2.40;;;21.20;93.90;;;;;;6307236;22;19999;-76
2023/09/20 00:18:54;;;;;;;8.80;2.33;;;21.20;93.80;;;;;;6307181;22;20006;-76
2023/09/20 00:21:20;;;;;;;4.80;1.60;;;21.20;93.60;;;;;;6306560;22;19995;-76
2023/09/20 00:23:46;;;;;;;7.25;2.22;;;21.20;93.50;;;;;;6307003;22;20316;-76
2023/09/20 00:26:13;;;;;;;8.20;2.00;;;21.20;93.40;;;;;;6307039;22;20298;-77
2023/09/20 00:28:39;;;;;;;5.45;1.98;;;21.20;93.30;;;;;;6306866;22;20018;-77
2023/09/20 00:31:05;;;;;;;7.15;2.17;;;21.20;93.20;;;;;;6306967;22;20063;-76
2023/09/20 00:33:32;;;;;;;6.50;1.80;;;21.20;93.20;;;;;;6279511;22;20492;-76
2023/09/20 00:35:57;;;;;;;6.22;1.80;;;21.30;93.10;;;;;;6307014;22;20002;-76
2023/09/20 00:38:24;;;;;;;8.20;2.00;;;21.20;92.90;;;;;;6307208;22;19995;-76
2023/09/20 00:40:50;;;;;;;6.75;2.10;;;21.30;93.00;;;;;;6307030;22;20084;-76
2023/09/20 00:43:23;;;;;;;3.45;2.03;;;21.30;93.00;;;;;;6306910;22;19999;-76
2023/09/20 00:45:49;;;;;;;7.88;1.95;;;21.30;93.00;;;;;;6306959;22;20002;-76
2023/09/20 00:48:16;;;;;;;4.60;1.98;;;21.20;92.90;;;;;;6306982;22;20003;-76
2023/09/20 00:50:42;;;;;;;8.30;2.10;;;21.30;92.90;;;;;;6306882;22;19999;-76
2023/09/20 00:53:11;;;;;;;7.28;1.90;;;21.30;92.90;;;;;;6306613;22;20007;-77
2023/09/20 00:55:38;;;;;;;8.55;1.95;;;21.20;92.90;;;;;;6307881;22;20082;-76
2023/09/20 00:58:12;;;;;;;6.03;2.20;;;21.30;92.90;;;;;;6280044;22;20328;-77
2023/09/20 01:00:40;;;;;;;5.60;1.92;;;21.30;92.90;;;;;;6305929;22;20004;-76
2023/09/20 01:03:06;;;;;;;4.78;2.15;;;21.20;92.90;;;;;;6278276;22;20003;-77
2023/09/20 01:05:37;;;;;;;9.20;2.30;;;21.20;92.90;;;;;;6307963;22;20052;-76
2023/09/20 01:08:03;;;;;;;6.25;1.88;;;21.20;92.90;;;;;;6308665;22;19999;-75
2023/09/20 01:10:31;;;;;;;4.63;1.85;;;21.20;92.90;;;;;;6308325;22;19999;-75
2023/09/20 01:13:04;;;;;;;7.88;2.38;;;21.20;92.90;;;;;;6308318;22;20421;-76
2023/09/20 01:15:34;;;;;;;5.93;1.95;;;21.20;92.80;;;;;;6308238;22;20015;-75
2023/09/20 01:18:01;;;;;;;7.28;2.05;;;21.20;92.70;;;;;;6308432;22;20021;-76
2023/09/20 01:20:28;;;;;;;6.13;2.17;;;21.20;92.60;;;;;;6308617;22;20007;-79
2023/09/20 01:22:58;;;;;;;10.90;3.25;;;21.20;92.60;;;;;;6308734;22;19996;-76
2023/09/20 01:25:29;;;;;;;4.97;2.00;;;21.20;92.70;;;;;;6308501;22;20003;-77
2023/09/20 01:28:00;;;;;;;8.35;1.90;;;21.20;92.60;;;;;;6280605;22;20070;-76
2023/09/20 01:30:28;;;;;;;4.32;1.70;;;21.20;92.60;;;;;;6308454;22;20018;-76
2023/09/20 01:32:59;;;;;;;7.05;2.13;;;21.20;92.60;;;;;;6308845;22;19999;-77
2023/09/20 01:35:26;;;;;;;7.70;2.00;;;21.20;92.40;;;;;;6308711;22;20078;-76
2023/09/20 01:37:52;;;;;;;7.10;2.35;;;21.10;92.40;;;;;;6308850;22;19995;-76
2023/09/20 01:40:25;;;;;;;6.45;2.00;;;21.20;92.40;;;;;;6281230;22;20010;-76
2023/09/20 01:42:53;;;;;;;9.95;2.40;;;21.20;92.50;;;;;;6308512;22;19999;-76
2023/09/20 01:45:20;;;;;;;9.43;2.45;;;21.20;92.60;;;;;;6308713;22;20452;-76
2023/09/20 01:47:51;;;;;;;6.43;2.67;;;21.20;92.80;;;;;;6308421;22;20074;-76
2023/09/20 01:50:19;;;;;;;7.78;2.22;;;21.10;93.00;;;;;;6308061;22;20463;-76
2023/09/20 01:52:49;;;;;;;6.75;2.20;;;21.10;93.10;;;;;;6308389;22;20002;-76
2023/09/20 01:55:21;;;;;;;7.30;1.83;;;21.00;93.30;;;;;;6308387;22;20007;-78
2023/09/20 01:57:52;;;;;;;8.57;2.10;;;21.00;93.50;;;;;;6308049;22;19995;-76
2023/09/20 02:00:22;;;;;;;13.35;2.70;;;20.90;93.60;;;;;;6308402;22;20132;-77
2023/09/20 02:03:00;;;;;;;6.10;2.53;;;20.90;93.70;;;;;;6280986;22;20007;-77
2023/09/20 02:05:27;;;;;;;11.65;2.28;;;20.90;93.80;;;;;;6308339;22;20439;-76
2023/09/20 02:07:54;;;;;;;7.07;2.10;;;20.80;93.90;;;;;;6308263;22;20066;-76
2023/09/20 02:10:21;;;;;;;9.35;2.33;;;20.80;93.90;;;;;;6308420;22;20042;-77
2023/09/20 02:12:48;;;;;;;7.70;2.00;;;20.80;94.00;;;;;;6308235;22;20031;-77
2023/09/20 02:15:14;;;;;;;7.88;2.30;;;20.80;94.10;;;;;;6307994;22;20102;-77
2023/09/20 02:17:41;;;;;;;5.65;1.80;;;20.80;94.10;;;;;;6308425;22;20014;-77
2023/09/20 02:20:09;;;;;;;7.47;2.10;;;20.80;94.00;;;;;;6308021;22;20003;-76
2023/09/20 02:22:38;;;;;;;11.40;2.58;;;20.70;94.00;;;;;;6308285;22;19999;-76
2023/09/20 02:25:10;;;;;;;9.23;2.35;;;20.60;94.00;;;;;;6308720;22;20007;-77
2023/09/20 02:27:36;;;;;;;8.45;2.35;;;20.60;94.20;;;;;;6308287;22;20003;-76
2023/09/20 02:30:03;;;;;;;4.93;2.05;;;20.60;94.20;;;;;;6308165;22;20090;-76
2023/09/20 02:32:31;;;;;;;5.05;1.90;;;20.50;94.20;;;;;;6308074;22;19999;-77
2023/09/20 02:34:57;;;;;;;6.40;2.10;;;20.50;94.30;;;;;;6308233;22;20003;-77
2023/09/20 02:37:23;;;;;;;13.02;2.13;;;20.50;94.40;;;;;;6308603;22;20003;-77
2023/09/20 02:39:48;;;;;;;4.53;1.83;;;20.50;94.50;;;;;;6308297;22;20390;-76
2023/09/20 02:42:14;;;;;;;8.50;2.05;;;20.50;94.60;;;;;;6308093;22;20303;-77
2023/09/20 02:44:40;;;;;;;9.77;2.40;;;20.40;94.60;;;;;;6280466;22;20000;-77
2023/09/20 02:47:06;;;;;;;12.13;2.40;;;20.40;94.70;;;;;;6280767;22;20381;-78
2023/09/20 02:49:33;;;;;;;4.32;1.90;;;20.40;94.70;;;;;;6308236;22;20035;-76
2023/09/20 02:51:58;;;;;;;12.20;2.20;;;20.40;94.70;;;;;;6308037;22;20002;-77
2023/09/20 02:54:25;;;;;;;7.78;1.83;;;20.30;94.70;;;;;;6307992;22;20022;-77
2023/09/20 02:56:52;;;;;;;7.95;1.90;;;20.30;94.80;;;;;;6307576;22;20003;-77
2023/09/20 02:59:20;;;;;;;4.50;2.20;;;20.30;94.80;;;;;;6308365;22;20038;-77
2023/09/20 03:01:49;;;;;;;11.88;3.28;;;20.20;94.90;;;;;;6308034;22;20056;-76
2023/09/20 03:04:15;;;;;;;4.35;2.10;;;20.30;95.00;;;;;;6307657;22;20052;-77
2023/09/20 03:06:44;;;;;;;9.82;2.50;;;20.20;95.00;;;;;;6307698;22;20006;-76
2023/09/20 03:09:10;;;;;;;5.45;2.28;;;20.30;95.10;;;;;;6307837;22;20018;-76
2023/09/20 03:11:37;;;;;;;6.47;2.30;;;20.20;95.00;;;;;;6308429;22;19999;-76
2023/09/20 03:14:08;;;;;;;6.32;2.33;;;20.20;95.00;;;;;;6307937;22;20035;-76
2023/09/20 03:16:34;;;;;;;6.45;2.28;;;20.20;95.10;;;;;;6308059;22;20417;-77
2023/09/20 03:19:01;;;;;;;8.85;2.83;;;20.20;95.10;;;;;;6307000;22;20052;-76
2023/09/20 03:21:26;;;;;;;10.18;2.88;;;20.20;95.00;;;;;;6307480;22;20385;-77
2023/09/20 03:23:52;;;;;;;6.38;2.50;;;20.20;95.10;;;;;;6307451;22;20004;-76
2023/09/20 03:26:18;;;;;;;10.65;2.40;;;20.20;95.10;;;;;;6307746;22;19999;-76
2023/09/20 03:28:46;;;;;;;6.32;2.20;;;20.20;95.10;;;;;;6307540;22;20042;-76
2023/09/20 03:31:12;;;;;;;9.45;2.67;;;20.20;95.00;;;;;;6307656;22;19996;-77
2023/09/20 03:33:38;;;;;;;9.50;3.08;;;20.10;94.90;;;;;;6308014;22;20082;-77
2023/09/20 03:36:15;;;;;;;6.97;2.03;;;20.10;94.90;;;;;;6307470;22;19995;-76
2023/09/20 03:38:40;;;;;;;5.55;2.30;;;20.10;94.80;;;;;;6307382;22;20010;-76
2023/09/20 03:41:07;;;;;;;6.32;2.30;;;20.10;94.80;;;;;;6307555;22;19999;-76
2023/09/20 03:43:33;;;;;;;6.93;1.90;;;20.10;94.80;;;;;;6307507;22;20031;-76
2023/09/20 03:46:01;;;;;;;5.45;1.95;;;20.10;94.70;;;;;;6307482;22;19999;-77
2023/09/20 03:48:27;;;;;;;6.85;1.95;;;20.10;94.70;;;;;;6307359;22;20341;-76
2023/09/20 03:50:53;;;;;;;12.90;2.75;;;20.10;94.60;;;;;;6307014;22;20075;-76
2023/09/20 03:53:18;;;;;;;8.52;2.47;;;20.20;94.50;;;;;;6307216;22;20030;-75
2023/09/20 03:55:45;;;;;;;7.40;2.50;;;20.10;94.50;;;;;;6279731;22;19999;-75
2023/09/20 03:58:11;;;;;;;6.90;2.17;;;20.10;94.30;;;;;;6279968;22;20095;-75
2023/09/20 04:00:38;;;;;;;5.95;2.10;;;20.10;94.30;;;;;;6307599;22;20041;-75
2023/09/20 04:03:05;;;;;;;8.45;2.30;;;20.20;94.30;;;;;;6307422;22;20417;-75
2023/09/20 04:05:33;;;;;;;8.98;1.98;;;20.20;94.20;;;;;;6307010;22;20418;-74
2023/09/20 04:08:00;;;;;;;5.30;1.88;;;20.20;94.10;;;;;;6307625;22;20056;-75
2023/09/20 04:10:27;;;;;;;6.72;2.20;;;20.20;94.10;;;;;;6307060;22;20011;-75
2023/09/20 04:12:53;;;;;;;8.68;2.25;;;20.20;94.10;;;;;;6307490;22;20018;-75
2023/09/20 04:15:19;;;;;;;7.05;2.30;;;20.20;94.10;;;;;;6306764;22;20023;-77
2023/09/20 04:17:48;;;;;;;8.32;2.10;;;20.20;94.20;;;;;;6307456;22;19995;-76
2023/09/20 04:20:13;;;;;;;5.93;1.95;;;20.20;94.10;;;;;;6307410;22;19996;-77
2023/09/20 04:22:42;;;;;;;5.28;2.38;;;20.20;94.10;;;;;;6306794;22;20004;-77
2023/09/20 04:25:10;;;;;;;6.00;2.30;;;20.20;94.10;;;;;;6307011;22;20364;-79
2023/09/20 04:27:36;;;;;;;9.00;3.05;;;20.20;94.10;;;;;;6307170;22;20003;-76
2023/09/20 04:30:03;;;;;;;9.18;2.20;;;20.20;94.10;;;;;;6306445;22;20047;-75
2023/09/20 04:32:29;;;;;;;5.75;2.00;;;20.20;94.20;;;;;;6306953;22;20006;-75
2023/09/20 04:34:56;;;;;;;6.35;2.17;;;20.10;94.10;;;;;;6307110;22;20074;-76
2023/09/20 04:37:25;;;;;;;7.07;1.88;;;20.10;94.10;;;;;;6307081;22;19995;-75
2023/09/20 04:39:51;;;;;;;5.00;2.00;;;20.10;94.10;;;;;;6307275;22;19999;-76
2023/09/20 04:42:17;;;;;;;6.90;2.42;;;20.10;94.10;;;;;;6306868;22;20333;-76
2023/09/20 04:44:43;;;;;;;9.43;2.40;;;20.10;94.00;;;;;;6307050;22;19995;-76
2023/09/20 04:47:13;;;;;;;8.15;2.38;;;20.10;93.90;;;;;;6279867;22;20072;-75
2023/09/20 04:49:38;;;;;;;8.75;2.25;;;20.10;94.00;;;;;;6306920;22;20082;-76
2023/09/20 04:52:05;;;;;;;6.85;2.28;;;20.10;94.00;;;;;;6279452;22;20027;-76
2023/09/20 04:54:33;;;;;;;9.32;2.40;;;20.10;94.10;;;;;;6307074;22;20097;-76
2023/09/20 04:56:59;;;;;;;4.55;2.20;;;20.10;94.20;;;;;;6307013;22;20000;-76
2023/09/20 04:59:25;;;;;;;8.85;2.35;;;20.00;94.20;;;;;;6306732;22;20337;-77
2023/09/20 05:01:51;;;;;;;9.93;2.20;;;20.00;94.40;;;;;;6306447;22;19996;-75
2023/09/20 05:04:19;;;;;;;6.93;2.22;;;19.90;94.50;;;;;;6306808;22;20504;-75
2023/09/20 05:06:45;;;;;;;8.30;2.17;;;19.90;94.60;;;;;;6307004;22;19996;-75
2023/09/20 05:09:11;;;;;;;7.30;2.50;;;19.90;94.80;;;;;;6306772;22;20011;-75
2023/09/20 05:11:37;;;;;;;11.60;2.40;;;19.80;94.90;;;;;;6307075;22;20019;-75
2023/09/20 05:14:05;;;;;;;11.15;2.95;;;19.80;95.00;;;;;;6307183;22;20342;-75
2023/09/20 05:16:32;;;;;;;9.70;2.30;;;19.80;95.10;;;;;;6306263;22;20006;-76
2023/09/20 05:18:57;;;;;;;11.27;2.72;;;19.80;95.20;;;;;;6276287;22;20121;-75
2023/09/20 05:21:23;;;;;;;15.10;2.33;;;19.80;95.20;;;;;;6306985;22;20030;-75
2023/09/20 05:23:49;;;;;;;8.43;2.38;;;19.80;95.20;;;;;;6307035;22;20003;-76
2023/09/20 05:26:15;;;;;;;8.77;2.70;;;19.80;95.20;;;;;;6307425;22;20338;-75
2023/09/20 05:28:40;;;;;;;7.95;2.78;;;19.80;95.30;;;;;;6307019;22;20031;-76
2023/09/20 05:31:06;;;;;;;8.55;2.60;;;19.80;95.40;;;;;;6307350;22;19999;-75
2023/09/20 05:33:32;;;;;;;9.15;2.63;;;19.70;95.40;;;;;;6306728;22;20049;-76
2023/09/20 05:35:58;;;;;;;10.77;2.38;;;19.80;95.50;;;;;;6307207;22;20006;-74
2023/09/20 05:38:25;;;;;;;10.25;2.78;;;19.80;95.60;;;;;;6306845;22;19996;-78
2023/09/20 05:40:51;;;;;;;7.45;2.38;;;19.80;95.50;;;;;;6307402;22;20681;-78
2023/09/20 05:43:17;;;;;;;10.50;3.70;;;19.80;95.50;;;;;;6309209;22;20121;-76
2023/09/20 05:45:43;;;;;;;10.80;2.67;;;19.80;95.60;;;;;;6308500;22;20445;-78
2023/09/20 05:48:12;;;;;;;10.98;2.65;;;19.90;95.60;;;;;;6308240;22;19995;-78
2023/09/20 05:50:41;;;;;;;9.15;2.63;;;19.90;95.50;;;;;;6281018;22;20011;-76
2023/09/20 05:53:10;;;;;;;12.57;3.65;;;20.00;95.50;;;;;;6308493;22;20003;-76
2023/09/20 05:55:40;;;;;;;11.43;2.90;;;20.00;95.50;;;;;;6308326;22;20003;-76
2023/09/20 05:58:06;;;;;;;9.68;2.50;;;20.00;95.50;;;;;;6308544;22;20456;-74
2023/09/20 06:00:35;;;;;;;7.70;2.97;;;20.00;95.60;;;;;;6308624;22;20003;-76
2023/09/20 06:03:03;;;;;;;6.88;2.55;;;20.00;95.70;;;;;;6308273;22;20425;-76
2023/09/20 06:05:32;;;;;;;9.15;2.83;;;20.00;95.70;;;;;;6308348;22;20003;-83
2023/09/20 06:07:57;;;;;;;6.70;2.75;;;20.10;95.80;;;;;;6281256;22;20326;-80
2023/09/20 06:10:23;;;;;;;8.30;2.90;;;20.10;95.80;;;;;;6307387;22;20007;-78
2023/09/20 06:12:52;;;;;;;10.77;3.58;;;20.10;95.90;;;;;;6307339;22;20027;-77
2023/09/20 06:15:18;;;;;;;12.85;2.72;;;20.20;96.00;;;;;;6306836;22;20016;-78
2023/09/20 06:17:47;;;;;;;15.38;3.00;;;20.20;96.00;;;;;;6305810;22;20338;-78
2023/09/20 06:20:19;;;;;;;9.75;2.55;;;20.20;96.10;;;;;;6308547;22;20436;-78
2023/09/20 06:22:51;;;;;;;6.90;2.40;;;20.20;96.20;;;;;;6308462;22;20422;-78
2023/09/20 06:25:20;;;;;;;7.93;2.80;;;20.20;96.20;;;;;;6308460;22;20006;-76
2023/09/20 06:27:46;;;;;;;7.25;2.33;;;20.20;96.10;;;;;;6305759;22;19995;-78
2023/09/20 06:30:14;;;;;;;14.98;4.10;;;20.30;96.10;;;;;;6305680;22;20060;-77
2023/09/20 06:32:44;;;;;;;10.13;3.35;;;20.30;96.10;;;;;;6306314;22;20003;-76
2023/09/20 06:35:10;;;;;;;9.95;2.60;;;20.40;96.10;;;;;;6306452;22;20030;-73
2023/09/20 06:37:38;;;;;;;10.95;3.33;;;20.40;96.00;;;;;;6306097;22;20306;-73
2023/09/20 06:40:15;;;;;;;18.92;3.88;;;20.50;95.80;;;;;;6305751;22;20011;-75
2023/09/20 06:42:40;;;;;;;18.55;3.75;;;20.50;95.90;;;;;;6307634;22;19999;-73
2023/09/20 06:45:08;;;;;;;19.77;3.15;;;20.50;96.00;;;;;;6308271;22;20085;-74
2023/09/20 06:47:34;;;;;;;26.02;4.10;;;20.50;96.10;;;;;;6308123;22;19999;-73
2023/09/20 06:50:04;;;;;;;10.75;3.13;;;20.50;96.20;;;;;;6307629;22;20077;-72
2023/09/20 06:52:29;;;;;;;11.30;2.92;;;20.50;96.30;;;;;;6307443;22;20021;-72
2023/09/20 06:54:55;;;;;;;16.70;2.63;;;20.50;96.40;;;;;;6307761;22;19999;-72
2023/09/20 06:57:22;;;;;;;14.68;2.72;;;20.60;96.50;;;;;;6307834;22;20318;-73
2023/09/20 06:59:51;;;;;;;15.05;3.60;;;20.60;96.40;;;;;;6308097;22;20052;-73
2023/09/20 07:02:17;;;;;;;15.82;3.10;;;20.60;96.40;;;;;;6308034;22;20006;-73
2023/09/20 07:04:43;;;;;;;10.05;3.13;;;20.70;96.40;;;;;;6308014;22;20003;-73
2023/09/20 07:07:10;;;;;;;13.60;3.50;;;20.70;96.30;;;;;;6307598;22;19995;-73
2023/09/20 07:09:37;;;;;;;7.68;3.00;;;20.80;96.20;;;;;;6307785;22;20015;-73
2023/09/20 07:12:03;;;;;;;12.82;3.22;;;20.80;96.10;;;;;;6307914;22;19995;-73
2023/09/20 07:14:31;;;;;;;11.52;3.28;;;20.90;96.20;;;;;;6307919;22;20015;-73
2023/09/20 07:16:57;;;;;;;13.52;2.92;;;20.80;96.10;;;;;;6307790;22;20003;-71
2023/09/20 07:19:26;;;;;;;8.88;3.10;;;20.90;96.00;;;;;;6307796;22;19996;-71
2023/09/20 07:21:52;;;;;;;8.07;3.00;;;20.90;96.20;;;;;;6308085;22;20370;-71
2023/09/20 07:24:24;;;;;;;15.50;3.92;;;20.90;96.20;;;;;;6307891;22;20321;-68
2023/09/20 07:26:51;;;;;;;11.77;3.35;;;20.90;96.20;;;;;;6307917;22;20030;-69
2023/09/20 07:29:17;;;;;;;13.32;3.35;;;20.90;96.20;;;;;;6307857;22;20372;-70
2023/09/20 07:31:43;;;;;;;14.75;3.47;;;20.90;96.30;;;;;;6308274;22;20015;-70
2023/09/20 07:34:16;;;;;;;14.38;3.92;;;21.00;96.40;;;;;;6307469;22;20006;-70
2023/09/20 07:36:43;;;;;;;13.38;3.70;;;21.00;96.40;;;;;;6307719;22;20004;-70
2023/09/20 07:39:12;;;;;;;9.25;2.85;;;21.00;96.30;;;;;;6307839;22;20084;-70
2023/09/20 07:41:44;;;;;;;17.48;3.70;;;21.00;96.30;;;;;;6307621;22;20371;-70
2023/09/20 07:44:12;;;;;;;8.70;2.80;;;21.00;96.40;;;;;;6307445;22;20003;-71
2023/09/20 07:46:39;;;;;;;10.73;3.20;;;21.00;96.60;;;;;;6307673;22;19999;-71
2023/09/20 07:49:10;;;;;;;12.45;3.40;;;21.10;96.80;;;;;;6307399;22;20011;-70
2023/09/20 07:51:39;;;;;;;8.55;3.03;;;21.10;96.80;;;;;;6307517;22;20054;-73
2023/09/20 07:54:09;;;;;;;7.28;2.80;;;21.10;96.80;;;;;;6307537;22;20003;-73
2023/09/20 07:56:35;;;;;;;10.88;2.63;;;21.10;96.60;;;;;;6307154;22;20049;-73
2023/09/20 07:59:03;;;;;;;9.93;2.50;;;21.20;96.30;;;;;;6307339;22;20006;-73
2023/09/20 08:01:30;;;;;;;12.63;3.30;;;21.20;96.10;;;;;;6307523;22;20006;-73
2023/09/20 08:03:59;;;;;;;10.38;3.65;;;21.30;95.90;;;;;;6307145;22;20003;-73
2023/09/20 08:06:33;;;;;;;13.15;2.90;;;21.30;95.80;;;;;;6307395;22;20010;-72
2023/09/20 08:08:59;;;;;;;8.27;2.70;;;21.40;95.60;;;;;;6307504;22;20019;-73
2023/09/20 08:11:26;;;;;;;12.32;3.03;;;21.40;95.40;;;;;;6307220;22;19995;-73
2023/09/20 08:13:54;;;;;;;5.95;2.50;;;21.40;95.40;;;;;;6307346;22;20011;-73
2023/09/20 08:16:21;;;;;;;11.40;2.42;;;21.40;95.40;;;;;;6307160;22;20007;-73
2023/09/20 08:21:32;;;;;;;6.10;2.38;;;21.50;95.20;;;;;;6307568;22;20098;-73
2023/09/20 09:00:24;;;;;;;13.32;3.10;;;22.30;93.40;;;;;;6307124;22;20010;-73
2023/09/20 09:03:00;;;;;;;11.95;2.35;;;22.30;93.30;;;;;;6307614;22;20060;-73
2023/09/20 09:05:27;;;;;;;9.10;2.40;;;22.40;93.50;;;;;;6307076;22;20000;-73
2023/09/20 09:07:55;;;;;;;14.52;2.72;;;22.40;93.60;;;;;;6307102;22;20000;-74
2023/09/20 09:10:21;;;;;;;11.50;2.67;;;22.40;93.70;;;;;;6307114;22;20012;-72
2023/09/20 09:12:47;;;;;;;11.77;2.83;;;22.50;93.90;;;;;;6307151;22;20466;-73
2023/09/20 09:15:16;;;;;;;12.02;2.97;;;22.50;93.90;;;;;;6306873;22;20086;-73
2023/09/20 09:17:46;;;;;;;13.57;2.88;;;22.50;93.70;;;;;;6308943;22;20070;-73
2023/09/20 09:20:19;;;;;;;10.68;2.80;;;22.60;93.90;;;;;;6309106;22;19995;-73
2023/09/20 09:22:44;;;;;;;;;;;22.70;94.00;;;;;;6309668;22;20000;-73
2023/09/20 09:25:16;;;;;;;6.30;2.40;;;22.70;94.00;;;;;;6308881;22;19899;-73
2023/09/20 09:27:43;;;;;;;11.63;2.80;;;22.80;93.80;;;;;;6309188;22;20000;-73
2023/09/20 09:30:13;;;;;;;9.48;2.67;;;22.80;93.70;;;;;;6308680;22;20433;-72
2023/09/20 09:32:42;;;;;;;9.10;3.22;;;22.90;93.90;;;;;;6308851;22;19996;-72
2023/09/20 09:35:08;;;;;;;9.75;2.90;;;23.00;93.80;;;;;;6309112;22;20336;-73
2023/09/20 09:37:36;;;;;;;11.20;2.75;;;23.10;93.60;;;;;;6309360;22;20064;-72
2023/09/20 09:40:04;;;;;;;7.72;2.80;;;23.10;93.70;;;;;;6308805;22;20060;-73
2023/09/20 09:42:30;;;;;;;8.52;2.67;;;23.20;93.50;;;;;;6309040;22;20003;-72
2023/09/20 09:44:56;;;;;;;12.07;2.65;;;23.30;93.40;;;;;;6308716;22;19995;-72
2023/09/20 09:47:24;;;;;;;11.57;2.65;;;23.40;93.40;;;;;;6308750;22;20003;-73
2023/09/20 09:49:52;;;;;;;11.57;2.90;;;23.40;93.20;;;;;;6308453;22;20060;-73
2023/09/20 09:52:23;;;;;;;9.60;2.95;;;23.50;92.90;;;;;;6308736;22;20010;-73
2023/09/20 09:54:50;;;;;;;9.33;2.67;;;23.60;92.70;;;;;;6308927;22;20430;-73
2023/09/20 09:57:18;;;;;;;9.70;3.00;;;23.60;92.70;;;;;;6308836;22;19996;-73
2023/09/20 09:59:48;;;;;;;17.90;3.22;;;23.60;93.00;;;;;;6308819;22;20026;-74
2023/09/20 10:02:19;;;;;;;9.50;2.63;;;23.70;92.70;;;;;;6308557;22;19999;-73
2023/09/20 10:04:58;;;;;;;5.63;2.80;;;23.70;92.70;;;;;;6308274;22;20418;-72
2023/09/20 10:07:29;;;;;;;12.05;2.67;;;23.70;92.50;;;;;;6308670;22;19995;-73
2023/09/20 10:10:08;;;;;;;8.00;3.05;;;23.70;92.50;;;;;;6308779;22;20043;-73
2023/09/20 10:12:36;;;;;;;10.90;2.95;;;23.70;92.50;;;;;;6308864;22;20087;-73
2023/09/20 10:15:07;;;;;;;11.00;2.80;;;23.70;92.60;;;;;;6308247;22;20330;-72
2023/09/20 10:17:34;;;;;;;12.93;2.65;;;23.70;92.50;;;;;;6308616;22;19999;-73
2023/09/20 10:20:07;;;;;;;9.25;2.83;;;23.70;92.30;;;;;;6308486;22;20006;-73
2023/09/20 10:22:40;;;;;;;10.10;3.60;;;23.70;92.50;;;;;;6308620;22;19995;-73
2023/09/20 10:25:29;;;;;;;12.90;3.10;;;23.80;92.60;;;;;;6308477;22;20010;-72
2023/09/20 10:27:55;;;;;;;8.50;2.70;;;23.80;92.80;;;;;;6308689;22;19996;-73
2023/09/20 10:30:21;;;;;;;14.98;3.40;;;23.80;92.70;;;;;;6281121;22;20041;-73
2023/09/20 10:32:47;;;;;;;13.73;3.35;;;23.90;92.50;;;;;;6308311;22;19996;-73
2023/09/20 10:35:27;;;;;;;8.00;2.92;;;23.90;92.70;;;;;;6308221;22;20006;-73
2023/09/20 10:38:21;;;;;;;15.30;3.40;;;24.00;92.90;;;;;;6307061;22;20003;-72
2023/09/20 10:40:57;;;;;;;9.38;2.92;;;24.00;92.70;;;;;;6295801;22;20010;-74
2023/09/20 10:43:42;;;;;;;13.73;3.40;;;24.10;92.80;;;;;;6307840;22;20060;-73
2023/09/20 10:46:11;;;;;;;15.18;3.97;;;24.20;92.50;;;;;;6307841;22;20078;-73
2023/09/20 10:48:41;;;;;;;14.48;3.28;;;24.20;92.50;;;;;;6308020;22;20467;-76
2023/09/20 10:51:07;;;;;;;10.60;3.15;;;24.30;92.50;;;;;;6307901;22;20006;-75
2023/09/20 10:53:42;;;;;;;15.70;3.15;;;24.30;92.20;;;;;;6307651;22;20003;-75
2023/09/20 10:56:09;;;;;;;18.98;3.63;;;24.40;91.90;;;;;;6308314;22;20007;-74
2023/09/20 10:58:38;;;;;;;11.50;3.60;;;24.40;91.80;;;;;;6307778;22;20055;-75
2023/09/20 11:01:06;;;;;;;17.85;3.42;;;24.40;91.70;;;;;;6307787;22;20271;-75
2023/09/20 11:03:32;;;;;;;11.38;3.53;;;24.50;91.60;;;;;;6307773;22;19999;-75
2023/09/20 11:05:58;;;;;;;12.52;3.35;;;24.60;91.80;;;;;;6307903;22;20000;-75
2023/09/20 11:08:24;;;;;;;14.80;3.47;;;24.60;91.80;;;;;;6307373;22;20372;-75
2023/09/20 11:10:50;;;;;;;14.57;3.20;;;24.70;91.10;;;;;;6308031;22;20400;-74
2023/09/20 11:13:19;;;;;;;19.45;4.03;;;24.80;89.60;;;;;;6306548;22;20005;-75
2023/09/20 11:15:48;;;;;;;10.32;3.05;;;24.70;89.20;;;;;;6306420;22;20345;-74
2023/09/20 11:18:19;;;;;;;12.13;3.42;;;24.80;87.00;;;;;;6306586;22;19999;-74
2023/09/20 11:20:49;;;;;;;14.95;3.28;;;24.70;86.50;;;;;;6307593;22;19999;-75
2023/09/20 11:23:15;;;;;;;15.98;2.97;;;24.80;86.10;;;;;;6307450;22;20003;-74
2023/09/20 11:25:41;;;;;;;14.75;3.70;;;24.90;84.30;;;;;;6280026;22;20009;-74
2023/09/20 11:28:09;;;;;;;20.55;4.28;;;24.80;84.30;;;;;;6307362;22;20000;-75
2023/09/20 11:30:35;;;;;;;17.52;3.55;;;24.80;85.50;;;;;;6307480;22;20014;-74
2023/09/20 11:33:04;;;;;;;17.83;3.33;;;24.90;85.20;;;;;;6279920;22;20003;-74
2023/09/20 11:35:40;;;;;;;19.52;3.88;;;24.90;84.60;;;;;;6307376;22;20060;-74
2023/09/20 11:38:07;;;;;;;20.52;3.30;;;24.90;84.50;;;;;;6307295;22;19995;-75
2023/09/20 11:40:36;;;;;;;17.60;3.50;;;24.90;84.60;;;;;;6306945;22;20064;-74
2023/09/20 11:43:06;;;;;;;17.08;3.05;;;25.00;84.50;;;;;;6306845;22;20050;-75
2023/09/20 11:45:38;;;;;;;17.80;3.33;;;25.00;83.50;;;;;;6306769;22;20003;-74
2023/09/20 11:48:08;;;;;;;16.98;3.45;;;25.00;83.90;;;;;;6307148;22;20006;-74
2023/09/20 11:50:34;;;;;;;12.13;3.35;;;25.00;84.40;;;;;;6307246;22;20068;-74
2023/09/20 11:53:00;;;;;;;20.85;4.00;;;25.00;84.80;;;;;;6306581;22;20008;-74
2023/09/20 11:55:26;;;;;;;15.82;3.42;;;25.10;84.90;;;;;;6306746;22;19999;-74
2023/09/20 11:57:55;;;;;;;12.13;3.72;;;25.10;85.50;;;;;;6307055;22;20306;-74
2023/09/20 12:00:25;;;;;;;11.85;2.95;;;25.10;85.00;;;;;;6306928;22;20003;-73
2023/09/20 12:02:53;;;;;;;18.50;3.72;;;25.10;85.00;;;;;;6306671;22;20325;-74
2023/09/20 12:05:21;;;;;;;11.93;3.50;;;25.10;85.60;;;;;;6306311;22;20003;-74
2023/09/20 12:07:56;;;;;;;17.83;4.00;;;25.20;86.40;;;;;;6306863;22;19999;-74
2023/09/20 12:10:22;;;;;;;17.30;4.53;;;25.30;87.10;;;;;;6307489;22;20050;-74
2023/09/20 12:12:50;;;;;;;15.05;3.55;;;25.30;86.70;;;;;;6307450;22;20082;-73
2023/09/20 12:15:17;;;;;;;18.60;4.22;;;25.40;85.90;;;;;;6307148;22;20019;-74
2023/09/20 12:17:43;;;;;;;18.67;4.07;;;25.40;85.60;;;;;;6306845;22;19999;-74
2023/09/20 12:20:11;;;;;;;15.70;3.90;;;25.40;85.00;;;;;;6307135;22;20004;-74
2023/09/20 12:22:38;;;;;;;16.40;4.07;;;25.30;85.90;;;;;;6307491;22;20074;-74
2023/09/20 12:25:06;;;;;;;17.75;4.07;;;25.40;86.10;;;;;;6307194;22;20405;-75
2023/09/20 12:27:33;;;;;;;12.68;3.72;;;25.40;86.80;;;;;;6306762;22;20007;-73
2023/09/20 12:29:59;;;;;;;11.82;3.65;;;25.40;86.80;;;;;;6306402;22;20046;-74
2023/09/20 12:32:25;;;;;;;16.08;3.50;;;25.50;87.20;;;;;;6306919;22;20007;-73
2023/09/20 12:34:54;;;;;;;17.88;4.72;;;25.50;87.60;;;;;;6306936;22;20070;-76
2023/09/20 12:37:20;;;;;;;11.43;3.58;;;25.50;86.50;;;;;;6306928;22;20418;-75
2023/09/20 12:39:50;;;;;;;20.50;4.22;;;25.50;86.50;;;;;;6306775;22;20070;-74
2023/09/20 12:42:16;;;;;;;14.00;3.15;;;25.60;87.60;;;;;;6306950;22;19999;-73
2023/09/20 12:44:43;;;;;;;14.52;3.38;;;25.60;86.80;;;;;;6307266;22;20031;-73
2023/09/20 12:47:09;;;;;;;10.13;3.97;;;25.50;86.40;;;;;;6307336;22;20080;-72
2023/09/20 12:49:37;;;;;;;15.85;3.85;;;25.60;87.00;;;;;;6306876;22;20007;-73
2023/09/20 12:52:03;;;;;;;16.77;4.07;;;25.60;87.00;;;;;;6308632;22;19995;-73
2023/09/20 12:54:30;;;;;;;14.63;4.53;;;25.60;86.50;;;;;;6308137;22;20089;-73
2023/09/20 12:56:57;;;;;;;31.30;4.93;;;25.60;86.40;;;;;;6307197;22;20003;-73
2023/09/20 12:59:27;;;;;;;21.65;4.13;;;25.60;86.20;;;;;;6307651;22;19999;-73
2023/09/20 13:01:59;;;;;;;19.85;3.67;;;25.50;85.90;;;;;;6308356;22;20004;-74
2023/09/20 13:04:27;;;;;;;18.67;4.57;;;25.50;86.10;;;;;;6307996;22;20001;-73
2023/09/20 13:06:53;;;;;;;12.50;3.35;;;25.50;86.60;;;;;;6280950;22;20007;-73
2023/09/20 13:09:21;;;;;;;15.02;3.75;;;25.50;87.00;;;;;;6308883;22;20043;-73
2023/09/20 13:11:48;;;;;;;17.60;3.95;;;25.50;87.10;;;;;;6308673;22;20131;-73
2023/09/20 13:14:19;;;;;;;15.25;4.00;;;25.50;87.10;;;;;;6308434;22;20018;-74
2023/09/20 13:16:49;;;;;;;15.88;5.25;;;25.50;86.90;;;;;;6308401;22;20003;-74
2023/09/20 13:19:16;;;;;;;17.90;4.38;;;25.60;86.00;;;;;;6308675;22;20000;-74
2023/09/20 13:21:42;;;;;;;13.55;3.50;;;25.50;86.20;;;;;;6308982;22;20479;-73
2023/09/20 13:24:08;;;;;;;14.27;4.03;;;25.60;86.90;;;;;;6307178;22;20003;-72
2023/09/20 13:26:35;;;;;;;11.90;3.97;;;25.50;86.70;;;;;;6307808;22;20007;-72